Time;durP1;ratioP1;P1;durP2;ratioP2;P2;SDS_P1;SDS_P2;PMS_P1;PMS_P2;Temp;Humidity;BMP_temperature;BMP_pressure;BME280_temperature;BME280_humidity;BME280_pressure;Samples;Min_cycle;Max_cycle;Signal;HPM_P1;HPM_P2
2021/12/08 00:00:36;;;;;;;;;;;;;;;13.78;62.05;98746.59;1048868;28;718;-72
2021/12/08 00:01:27;;;;;;;;;;;;;;;13.78;61.86;98748.44;1048670;28;1893;-71
2021/12/08 00:02:17;;;;;;;;;;;;;;;13.77;62.07;98752.97;1048617;28;885;-72
2021/12/08 00:03:08;;;;;;;;;;;;;;;13.78;61.95;98756.47;1048829;28;841;-71
2021/12/08 00:03:58;;;;;;;;;;;;;;;13.78;61.67;98761.81;1048522;28;820;-71
2021/12/08 00:04:49;;;;;;;;;;;;;;;13.79;61.89;98774.19;1048848;28;719;-72
2021/12/08 00:05:39;;;;;;;;;;;;;;;13.79;61.79;98779.56;1048681;28;795;-73
2021/12/08 00:06:29;;;;;;;;;;;;;;;13.79;62.27;98776.88;1048678;28;1355;-68
2021/12/08 00:07:20;;;;;;;;;;;;;;;13.78;61.61;98768.00;1048908;28;681;-68
2021/12/08 00:08:10;;;;;;;;;;;;;;;13.79;61.80;98761.63;1048328;28;732;-69
2021/12/08 00:09:06;;;;;;;;;;;;;;;13.78;62.46;98749.28;1048672;28;732;-68
2021/12/08 00:10:05;;;;;;;;;;;;;;;13.78;62.28;98751.94;1048783;28;665;-72
2021/12/08 00:13:03;;;;;;;;;;;;;;;13.77;62.52;98762.81;1049938;28;645;-68
2021/12/08 00:13:53;;;;;;;;;;;;;;;13.77;61.99;98762.81;1049266;28;626;-70
2021/12/08 00:14:43;;;;;;;;;;;;;;;13.77;61.86;98769.03;1048634;28;953;-71
2021/12/08 00:15:34;;;;;;;;;;;;;;;13.77;62.53;98766.34;1048973;28;709;-75
2021/12/08 00:16:24;;;;;;;;;;;;;;;13.77;62.30;98765.50;1048874;28;799;-76
2021/12/08 00:17:15;;;;;;;;;;;;;;;13.78;62.74;98759.16;1048891;28;736;-75
2021/12/08 00:18:05;;;;;;;;;;;;;;;13.76;62.81;98758.47;1048786;28;680;-75
2021/12/08 00:18:58;;;;;;;;;;;;;;;13.75;62.63;98757.63;1048709;28;871;-76
2021/12/08 00:19:49;;;;;;;;;;;;;;;13.75;61.76;98746.94;1049344;28;769;-76
2021/12/08 00:20:39;;;;;;;;;;;;;;;13.76;61.92;98750.44;1048595;28;719;-76
2021/12/08 00:21:29;;;;;;;;;;;;;;;13.74;62.09;98741.75;1048785;28;606;-76
2021/12/08 00:22:20;;;;;;;;;;;;;;;13.74;62.12;98744.44;1048872;28;653;-76
2021/12/08 00:23:10;;;;;;;;;;;;;;;13.74;62.84;98747.09;1048725;28;799;-75
2021/12/08 00:24:01;;;;;;;;;;;;;;;13.74;62.55;98744.44;1048838;28;745;-71
2021/12/08 00:24:51;;;;;;;;;;;;;;;13.74;61.95;98736.41;1048530;28;830;-71
2021/12/08 00:25:42;;;;;;;;;;;;;;;13.73;61.94;98748.09;1049288;28;968;-71
2021/12/08 00:26:32;;;;;;;;;;;;;;;13.73;61.96;98746.25;1048741;28;869;-70
2021/12/08 00:27:23;;;;;;;;;;;;;;;13.73;62.03;98756.97;1048804;28;790;-71
2021/12/08 00:28:13;;;;;;;;;;;;;;;13.74;62.43;98750.63;1048663;28;843;-70
2021/12/08 00:29:03;;;;;;;;;;;;;;;13.74;62.64;98749.78;1048702;28;842;-70
2021/12/08 00:29:54;;;;;;;;;;;;;;;13.75;62.74;98748.78;1048682;28;1959;-72
2021/12/08 00:30:44;;;;;;;;;;;;;;;13.73;62.05;98745.44;1045107;28;693;-72
2021/12/08 00:31:35;;;;;;;;;;;;;;;13.72;62.89;98755.31;1045091;28;835;-71
2021/12/08 00:32:28;;;;;;;;;;;;;;;13.72;62.86;98757.13;1045161;28;856;-72
2021/12/08 00:33:18;;;;;;;;;;;;;;;13.72;62.78;98759.81;1044512;28;862;-72
2021/12/08 00:34:09;;;;;;;;;;;;;;;13.72;62.10;98741.09;1048587;28;719;-72
2021/12/08 00:34:59;;;;;;;;;;;;;;;13.73;62.93;98745.44;1050710;28;653;-73
2021/12/08 00:35:51;;;;;;;;;;;;;;;13.73;62.26;98738.25;1046395;28;864;-72
2021/12/08 00:36:45;;;;;;;;;;;;;;;13.73;62.39;98729.38;1045136;28;799;-73
2021/12/08 00:37:36;;;;;;;;;;;;;;;13.72;62.59;98725.84;1044578;28;839;-73
2021/12/08 00:38:26;;;;;;;;;;;;;;;13.72;62.10;98731.22;1045187;28;673;-74
2021/12/08 00:39:17;;;;;;;;;;;;;;;13.72;62.67;98725.84;1045278;28;713;-74
2021/12/08 00:40:07;;;;;;;;;;;;;;;13.71;62.92;98728.69;1045770;28;642;-74
2021/12/08 00:40:57;;;;;;;;;;;;;;;13.72;62.13;98738.41;1044427;28;952;-77
2021/12/08 00:41:48;;;;;;;;;;;;;;;13.73;62.70;98734.72;1044684;28;873;-77
2021/12/08 00:42:38;;;;;;;;;;;;;;;13.73;62.63;98732.03;1048838;28;627;-77
2021/12/08 00:43:29;;;;;;;;;;;;;;;13.73;62.32;98732.03;1050827;28;684;-77
2021/12/08 00:44:19;;;;;;;;;;;;;;;13.72;62.99;98735.72;1046620;28;680;-79
2021/12/08 00:45:10;;;;;;;;;;;;;;;13.72;62.35;98735.72;1044671;28;761;-77
2021/12/08 00:46:00;;;;;;;;;;;;;;;13.73;62.66;98743.59;1045070;28;930;-77
2021/12/08 00:46:51;;;;;;;;;;;;;;;13.71;62.34;98734.88;1045102;28;702;-79
2021/12/08 00:47:41;;;;;;;;;;;;;;;13.71;62.43;98732.22;1044465;28;622;-78
2021/12/08 00:48:32;;;;;;;;;;;;;;;13.70;63.26;98732.38;1044628;28;664;-77
2021/12/08 00:49:22;;;;;;;;;;;;;;;13.70;62.37;98732.38;1044396;28;681;-77
2021/12/08 00:50:13;;;;;;;;;;;;;;;13.71;63.24;98731.38;1047421;28;1787;-79
2021/12/08 00:51:03;;;;;;;;;;;;;;;13.70;62.90;98724.34;1048096;28;2085;-77
2021/12/08 00:51:54;;;;;;;;;;;;;;;13.70;63.09;98732.38;1048693;28;753;-78
2021/12/08 00:52:44;;;;;;;;;;;;;;;13.70;62.44;98738.56;1048577;28;663;-77
2021/12/08 00:53:35;;;;;;;;;;;;;;;13.70;63.03;98741.25;1048753;28;729;-77
2021/12/08 00:54:25;;;;;;;;;;;;;;;13.69;62.91;98742.25;1048562;28;871;-75
2021/12/08 00:55:15;;;;;;;;;;;;;;;13.70;62.67;98743.94;1048738;28;708;-77
2021/12/08 00:56:06;;;;;;;;;;;;;;;13.71;62.39;98739.41;1052624;28;815;-75
2021/12/08 00:56:57;;;;;;;;;;;;;;;13.70;62.50;98741.25;1053572;28;659;-75
2021/12/08 00:57:48;;;;;;;;;;;;;;;13.70;63.04;98746.59;1049267;28;676;-75
2021/12/08 00:58:38;;;;;;;;;;;;;;;13.70;63.20;98741.25;1048445;28;840;-76
2021/12/08 00:59:28;;;;;;;;;;;;;;;13.70;63.28;98743.09;1048726;28;748;-77
2021/12/08 01:00:19;;;;;;;;;;;;;;;13.70;62.67;98740.41;1048855;28;705;-77
2021/12/08 01:01:09;;;;;;;;;;;;;;;13.69;63.10;98738.75;1048615;28;1914;-76
2021/12/08 01:02:02;;;;;;;;;;;;;;;13.71;62.75;98744.75;1048787;28;634;-76
2021/12/08 01:02:53;;;;;;;;;;;;;;;13.70;62.71;98748.44;1048669;28;779;-76
2021/12/08 01:03:45;;;;;;;;;;;;;;;13.69;63.26;98747.59;1048514;28;662;-77
2021/12/08 01:04:35;;;;;;;;;;;;;;;13.70;63.35;98753.78;1048563;28;873;-74
2021/12/08 01:05:26;;;;;;;;;;;;;;;13.68;62.56;98755.81;1048773;28;708;-74
2021/12/08 01:06:17;;;;;;;;;;;;;;;13.68;63.19;98764.66;1048490;28;1192;-74
2021/12/08 01:07:07;;;;;;;;;;;;;;;13.69;62.57;98760.16;1048465;28;1653;-75
2021/12/08 01:07:58;;;;;;;;;;;;;;;13.69;63.06;98765.50;1048716;28;715;-74
2021/12/08 01:08:48;;;;;;;;;;;;;;;13.69;63.29;98768.19;1048479;28;712;-75
2021/12/08 01:09:39;;;;;;;;;;;;;;;13.69;62.58;98773.53;1048559;28;2029;-75
2021/12/08 01:10:29;;;;;;;;;;;;;;;13.68;62.80;98774.53;1048799;28;704;-76
2021/12/08 01:11:19;;;;;;;;;;;;;;;13.68;63.59;98769.19;1049175;28;728;-75
2021/12/08 01:12:10;;;;;;;;;;;;;;;13.68;62.52;98766.50;1048678;28;713;-75
2021/12/08 01:13:00;;;;;;;;;;;;;;;13.68;63.02;98769.19;1044679;28;854;-75
2021/12/08 01:13:51;;;;;;;;;;;;;;;13.70;63.33;98780.56;1045438;28;711;-75
2021/12/08 01:14:41;;;;;;;;;;;;;;;13.68;62.68;98772.69;1049203;28;645;-75
2021/12/08 01:15:32;;;;;;;;;;;;;;;13.68;63.24;98777.22;1048125;28;642;-75
2021/12/08 01:16:22;;;;;;;;;;;;;;;13.67;62.90;98775.53;1048841;28;665;-75
2021/12/08 01:17:14;;;;;;;;;;;;;;;13.68;63.04;98771.88;1048629;28;836;-73
2021/12/08 01:18:04;;;;;;;;;;;;;;;13.66;63.31;98760.50;1049216;28;809;-72
2021/12/08 01:18:55;;;;;;;;;;;;;;;13.65;63.68;98764.16;1048588;28;718;-71
2021/12/08 01:19:45;;;;;;;;;;;;;;;13.65;63.61;98766.84;1049036;28;693;-71
2021/12/08 01:20:35;;;;;;;;;;;;;;;13.65;63.49;98759.66;1049377;28;606;-71
2021/12/08 01:21:26;;;;;;;;;;;;;;;13.65;63.57;98756.13;1049385;28;1906;-72
2021/12/08 01:22:16;;;;;;;;;;;;;;;13.66;62.78;98765.84;1049439;28;693;-72
2021/12/08 01:23:07;;;;;;;;;;;;;;;13.64;63.07;98757.97;1049541;28;641;-71
2021/12/08 01:23:57;;;;;;;;;;;;;;;13.66;62.73;98757.81;1049454;28;654;-71
2021/12/08 01:24:47;;;;;;;;;;;;;;;13.66;63.34;98755.97;1049312;28;972;-71
2021/12/08 01:25:38;;;;;;;;;;;;;;;13.66;63.47;98752.47;1049292;28;906;-71
2021/12/08 01:26:29;;;;;;;;;;;;;;;13.67;62.74;98746.09;1045569;28;732;-71
2021/12/08 01:27:19;;;;;;;;;;;;;;;13.66;63.23;98753.28;1046172;28;710;-71
2021/12/08 01:28:09;;;;;;;;;;;;;;;13.67;63.22;98759.47;1050016;28;641;-71
2021/12/08 01:29:00;;;;;;;;;;;;;;;13.66;63.50;98763.16;1045679;28;753;-71
2021/12/08 01:29:50;;;;;;;;;;;;;;;13.66;62.80;98765.84;1042635;28;860;-71
2021/12/08 01:30:41;;;;;;;;;;;;;;;13.66;63.62;98768.53;1047839;28;661;-70
2021/12/08 01:31:31;;;;;;;;;;;;;;;13.65;63.47;98773.03;1045026;28;791;-70
2021/12/08 01:32:22;;;;;;;;;;;;;;;13.65;62.91;98766.84;1045172;28;985;-71
2021/12/08 01:33:12;;;;;;;;;;;;;;;13.65;63.38;98770.34;1045228;28;642;-71
2021/12/08 01:34:03;;;;;;;;;;;;;;;13.65;63.58;98781.06;1045199;28;817;-71
2021/12/08 01:34:53;;;;;;;;;;;;;;;13.66;62.72;98784.56;1049011;28;623;-70
2021/12/08 01:35:44;;;;;;;;;;;;;;;13.65;63.65;98781.06;1050155;28;833;-71
2021/12/08 01:36:34;;;;;;;;;;;;;;;13.65;63.69;98782.91;1046022;28;714;-71
2021/12/08 01:37:25;;;;;;;;;;;;;;;13.64;62.95;98787.41;1045224;28;705;-71
2021/12/08 01:38:15;;;;;;;;;;;;;;;13.65;63.36;98783.75;1045742;28;857;-71
2021/12/08 01:39:06;;;;;;;;;;;;;;;13.65;63.06;98780.22;1046441;28;697;-71
2021/12/08 01:39:56;;;;;;;;;;;;;;;13.63;63.07;98791.09;1046282;28;768;-71
2021/12/08 01:40:46;;;;;;;;;;;;;;;13.63;63.68;98790.25;1046297;28;905;-72
2021/12/08 01:41:37;;;;;;;;;;;;;;;13.63;63.70;98782.22;1046396;28;638;-72
2021/12/08 01:42:33;;;;;;;;;;;;;;;13.63;62.83;98796.44;1042479;28;653;-72
2021/12/08 01:43:26;;;;;;;;;;;;;;;13.65;62.73;98804.31;1043172;28;696;-71
2021/12/08 01:46:46;;;;;;;;;;;;;;;13.64;63.15;98787.41;1040199;28;1431;-71
2021/12/08 01:47:36;;;;;;;;;;;;;;;13.65;63.39;98793.59;1042573;28;685;-71
2021/12/08 01:48:26;;;;;;;;;;;;;;;13.64;62.87;98791.94;1046641;28;917;-71
2021/12/08 01:49:17;;;;;;;;;;;;;;;13.63;63.85;98787.59;1048563;28;1833;-71
2021/12/08 01:50:07;;;;;;;;;;;;;;;13.64;63.56;98791.94;1049280;28;682;-74
2021/12/08 01:50:58;;;;;;;;;;;;;;;13.63;63.49;98784.91;1049279;28;626;-73
2021/12/08 01:51:48;;;;;;;;;;;;;;;13.62;63.85;98786.75;1049162;28;642;-67
2021/12/08 01:52:39;;;;;;;;;;;;;;;13.63;63.75;98792.94;1045342;28;840;-69
2021/12/08 01:53:29;;;;;;;;;;;;;;;13.63;62.89;98795.63;1045991;28;700;-68
2021/12/08 01:54:19;;;;;;;;;;;;;;;13.63;63.30;98795.63;1050013;28;637;-69
2021/12/08 01:55:10;;;;;;;;;;;;;;;13.63;62.93;98790.25;1049439;28;801;-69
2021/12/08 01:56:00;;;;;;;;;;;;;;;13.62;63.79;98788.59;1049092;28;929;-69
2021/12/08 01:56:51;;;;;;;;;;;;;;;13.61;63.13;98785.09;1049224;28;831;-69
2021/12/08 01:57:41;;;;;;;;;;;;;;;13.61;63.79;98787.78;1049182;28;630;-70
2021/12/08 01:58:32;;;;;;;;;;;;;;;13.62;62.96;98789.44;1045466;28;662;-68
2021/12/08 01:59:22;;;;;;;;;;;;;;;13.61;63.08;98789.63;1046078;28;654;-67
2021/12/08 02:00:12;;;;;;;;;;;;;;;13.62;63.50;98793.94;1049836;28;854;-67
2021/12/08 02:01:03;;;;;;;;;;;;;;;13.61;63.91;98794.97;1049294;28;851;-69
2021/12/08 02:01:53;;;;;;;;;;;;;;;13.61;63.85;98801.16;1049127;28;639;-68
2021/12/08 02:02:44;;;;;;;;;;;;;;;13.61;63.81;98798.50;1049241;28;626;-69
2021/12/08 02:03:34;;;;;;;;;;;;;;;13.62;63.78;98799.28;1049329;28;702;-68
2021/12/08 02:04:24;;;;;;;;;;;;;;;13.62;63.71;98808.16;1048244;28;1895;-68
2021/12/08 02:05:17;;;;;;;;;;;;;;;13.62;63.03;98800.13;1049884;28;928;-69
2021/12/08 02:06:07;;;;;;;;;;;;;;;13.63;63.79;98806.31;1050072;28;699;-69
2021/12/08 02:07:00;;;;;;;;;;;;;;;13.63;63.32;98806.31;1045361;28;701;-69
2021/12/08 02:07:51;;;;;;;;;;;;;;;13.62;63.03;98810.84;1045789;28;631;-69
2021/12/08 02:08:41;;;;;;;;;;;;;;;13.62;63.16;98810.00;1049692;28;2060;-69
2021/12/08 02:09:31;;;;;;;;;;;;;;;13.63;63.47;98817.03;1049063;28;793;-69
2021/12/08 02:10:22;;;;;;;;;;;;;;;13.61;63.91;98814.53;1049422;28;724;-72
2021/12/08 02:11:12;;;;;;;;;;;;;;;13.62;63.62;98815.34;1048032;28;1746;-70
2021/12/08 02:12:03;;;;;;;;;;;;;;;13.62;63.15;98818.88;1049295;28;869;-72
2021/12/08 02:12:53;;;;;;;;;;;;;;;13.61;63.95;98819.91;1049026;28;686;-70
2021/12/08 02:13:44;;;;;;;;;;;;;;;13.60;63.33;98812.88;1049018;28;952;-71
2021/12/08 02:14:34;;;;;;;;;;;;;;;13.59;63.95;98815.72;1049086;28;741;-69
2021/12/08 02:15:25;;;;;;;;;;;;;;;13.59;63.39;98821.06;1049308;28;897;-70
2021/12/08 02:16:15;;;;;;;;;;;;;;;13.58;63.45;98819.41;1049164;28;693;-70
2021/12/08 02:17:10;;;;;;;;;;;;;;;13.58;63.42;98824.75;1049160;28;760;-69
2021/12/08 02:18:00;;;;;;;;;;;;;;;13.57;63.43;98815.03;1049107;28;667;-70
2021/12/08 02:18:52;;;;;;;;;;;;;;;13.58;63.35;98817.56;1048766;28;1681;-70
2021/12/08 02:19:43;;;;;;;;;;;;;;;13.59;64.24;98815.72;1049191;28;786;-69
2021/12/08 02:20:33;;;;;;;;;;;;;;;13.58;63.24;98809.53;1051086;28;693;-70
2021/12/08 02:21:24;;;;;;;;;;;;;;;13.59;64.23;98811.19;1049135;28;1962;-74
2021/12/08 02:22:14;;;;;;;;;;;;;;;13.58;63.24;98800.66;1049806;28;764;-74
2021/12/08 02:23:05;;;;;;;;;;;;;;;13.59;63.41;98805.00;1048081;28;2165;-74
2021/12/08 02:23:55;;;;;;;;;;;;;;;13.58;63.30;98803.34;1049191;28;828;-74
2021/12/08 02:24:45;;;;;;;;;;;;;;;13.59;64.25;98810.38;1049072;28;672;-74
2021/12/08 02:25:36;;;;;;;;;;;;;;;13.59;64.08;98805.00;1049239;28;1257;-74
2021/12/08 02:26:26;;;;;;;;;;;;;;;13.59;63.30;98802.34;1049042;28;638;-74
2021/12/08 02:27:17;;;;;;;;;;;;;;;13.58;64.14;98803.34;1049162;28;767;-73
2021/12/08 02:28:07;;;;;;;;;;;;;;;13.57;63.50;98807.00;1049231;28;827;-72
2021/12/08 02:28:58;;;;;;;;;;;;;;;13.58;63.36;98811.38;1045670;28;650;-72
2021/12/08 02:29:54;;;;;;;;;;;;;;;13.57;63.57;98815.03;1046191;28;657;-70
2021/12/08 02:31:07;;;;;;;;;;;;;;;13.57;64.11;98818.56;1046171;28;633;-70
2021/12/08 02:32:24;;;;;;;;;;;;;;;13.58;63.46;98819.41;1045854;28;765;-70
2021/12/08 02:47:10;;;;;;;;;;;;;;;13.56;64.21;98827.59;1049841;28;1738;-77
2021/12/08 02:48:00;;;;;;;;;;;;;;;13.57;63.87;98839.97;1049641;28;645;-77
2021/12/08 02:48:50;;;;;;;;;;;;;;;13.55;63.39;98829.44;1048729;28;2024;-76
2021/12/08 02:49:41;;;;;;;;;;;;;;;13.57;63.70;98828.44;1049073;28;708;-76
2021/12/08 02:50:31;;;;;;;;;;;;;;;13.58;64.08;98838.13;1048895;28;708;-77
2021/12/08 02:51:22;;;;;;;;;;;;;;;13.55;64.29;98829.44;1048988;28;703;-76
2021/12/08 02:52:12;;;;;;;;;;;;;;;13.57;63.75;98825.75;1049258;28;653;-76
2021/12/08 02:53:02;;;;;;;;;;;;;;;13.56;63.95;98838.28;1047684;28;2108;-76
2021/12/08 02:53:53;;;;;;;;;;;;;;;13.54;64.52;98840.28;1049208;28;662;-75
2021/12/08 02:54:43;;;;;;;;;;;;;;;13.54;64.04;98832.28;1049000;28;602;-76
2021/12/08 02:55:34;;;;;;;;;;;;;;;13.54;63.54;98835.78;1049092;28;758;-77
2021/12/08 02:56:25;;;;;;;;;;;;;;;13.54;63.95;98824.25;1048981;28;835;-75
2021/12/08 02:57:16;;;;;;;;;;;;;;;13.54;63.95;98835.78;1048988;28;747;-76
2021/12/08 02:58:06;;;;;;;;;;;;;;;13.54;63.82;98843.81;1048995;28;728;-77
2021/12/08 02:58:57;;;;;;;;;;;;;;;13.53;63.98;98836.78;1049587;28;785;-76
2021/12/08 02:59:47;;;;;;;;;;;;;;;13.56;63.85;98843.66;1049400;28;704;-77
2021/12/08 03:00:37;;;;;;;;;;;;;;;13.55;64.48;98832.09;1049099;28;634;-77
2021/12/08 03:01:28;;;;;;;;;;;;;;;13.54;64.33;98827.75;1049025;28;1929;-79
2021/12/08 03:02:18;;;;;;;;;;;;;;;13.56;63.62;98819.56;1049008;28;626;-78
2021/12/08 03:03:09;;;;;;;;;;;;;;;13.52;63.58;98816.38;1048970;28;716;-73
2021/12/08 03:03:59;;;;;;;;;;;;;;;13.54;64.22;98818.88;1054044;28;677;-73
2021/12/08 03:04:50;;;;;;;;;;;;;;;13.53;64.44;98815.38;1054039;28;648;-73
2021/12/08 03:05:40;;;;;;;;;;;;;;;13.53;64.20;98820.72;1050277;28;869;-73
2021/12/08 03:06:30;;;;;;;;;;;;;;;13.53;64.57;98819.88;1048825;28;1319;-73
2021/12/08 03:07:21;;;;;;;;;;;;;;;13.53;63.95;98810.03;1049067;28;776;-72
2021/12/08 03:08:12;;;;;;;;;;;;;;;13.51;64.15;98820.06;1048793;28;725;-72
2021/12/08 03:09:03;;;;;;;;;;;;;;;13.53;64.36;98817.22;1049057;28;700;-73
2021/12/08 03:09:53;;;;;;;;;;;;;;;13.51;63.55;98808.50;1048791;28;790;-72
2021/12/08 03:10:44;;;;;;;;;;;;;;;13.52;64.63;98821.72;1048947;28;911;-72
2021/12/08 03:11:34;;;;;;;;;;;;;;;13.52;64.46;98813.69;1048908;28;701;-77
2021/12/08 03:12:25;;;;;;;;;;;;;;;13.53;63.60;98826.09;1048991;28;727;-78
2021/12/08 03:13:15;;;;;;;;;;;;;;;13.53;64.05;98818.06;1049116;28;665;-74
2021/12/08 03:14:05;;;;;;;;;;;;;;;13.53;63.67;98818.06;1053922;28;827;-74
2021/12/08 03:14:56;;;;;;;;;;;;;;;13.53;64.47;98831.44;1051804;28;1906;-74
2021/12/08 03:15:46;;;;;;;;;;;;;;;13.52;63.89;98832.44;1046700;28;665;-74
2021/12/08 03:16:37;;;;;;;;;;;;;;;13.51;63.92;98825.41;1045974;28;1639;-73
2021/12/08 03:17:27;;;;;;;;;;;;;;;13.52;63.95;98835.09;1049483;28;660;-72
2021/12/08 03:18:18;;;;;;;;;;;;;;;13.53;63.98;98830.59;1048925;28;851;-73
2021/12/08 03:19:08;;;;;;;;;;;;;;;13.52;63.72;98837.78;1049028;28;662;-73
2021/12/08 03:19:59;;;;;;;;;;;;;;;13.52;64.48;98837.78;1048795;28;693;-73
2021/12/08 03:20:51;;;;;;;;;;;;;;;13.52;64.47;98829.75;1045125;28;748;-73
2021/12/08 03:21:41;;;;;;;;;;;;;;;13.51;64.35;98837.94;1045675;28;705;-72
2021/12/08 03:22:34;;;;;;;;;;;;;;;13.52;64.05;98836.94;1050003;28;862;-71
2021/12/08 03:23:31;;;;;;;;;;;;;;;13.50;63.89;98837.13;1049604;28;654;-71
2021/12/08 03:25:18;;;;;;;;;;;;;;;13.52;64.01;98843.13;1049483;28;713;-71
2021/12/08 03:26:09;;;;;;;;;;;;;;;13.52;63.59;98843.13;1049564;28;724;-71
2021/12/08 03:28:05;;;;;;;;;;;;;;;13.49;64.52;98839.94;1049426;28;720;-72
2021/12/08 03:29:04;;;;;;;;;;;;;;;13.51;64.00;98837.94;1049314;28;786;-71
2021/12/08 03:30:01;;;;;;;;;;;;;;;13.50;64.58;98845.13;1049612;28;665;-74
2021/12/08 03:30:59;;;;;;;;;;;;;;;13.50;63.89;98839.78;1049369;28;997;-75
2021/12/08 03:31:52;;;;;;;;;;;;;;;13.49;64.70;98843.47;1049367;28;637;-75
2021/12/08 03:32:42;;;;;;;;;;;;;;;13.51;64.52;98845.97;1049411;28;838;-76
2021/12/08 03:33:33;;;;;;;;;;;;;;;13.50;64.02;98845.13;1049024;28;717;-76
2021/12/08 03:34:26;;;;;;;;;;;;;;;13.50;63.97;98846.97;1048747;28;714;-76
2021/12/08 03:35:16;;;;;;;;;;;;;;;13.49;63.91;98854.16;1049541;28;755;-76
2021/12/08 03:36:06;;;;;;;;;;;;;;;13.50;63.95;98853.16;1048844;28;803;-75
2021/12/08 03:36:57;;;;;;;;;;;;;;;13.50;64.06;98861.19;1048809;28;747;-74
2021/12/08 03:37:47;;;;;;;;;;;;;;;13.50;64.42;98852.34;1048730;28;713;-76
2021/12/08 03:38:39;;;;;;;;;;;;;;;13.50;64.80;98855.00;1048858;28;654;-75
2021/12/08 03:39:29;;;;;;;;;;;;;;;13.49;64.31;98856.84;1049465;28;654;-76
2021/12/08 03:40:20;;;;;;;;;;;;;;;13.49;64.38;98856.84;1048913;28;646;-75
2021/12/08 03:41:11;;;;;;;;;;;;;;;13.48;64.02;98857.84;1048919;28;1955;-75
2021/12/08 03:42:02;;;;;;;;;;;;;;;13.48;64.56;98865.88;1049258;28;787;-74
2021/12/08 03:42:52;;;;;;;;;;;;;;;13.49;64.82;98861.34;1049090;28;1873;-72
2021/12/08 03:43:43;;;;;;;;;;;;;;;13.49;64.24;98854.16;1048794;28;658;-71
2021/12/08 03:44:34;;;;;;;;;;;;;;;13.48;64.36;98846.31;1049057;28;641;-71
2021/12/08 03:45:25;;;;;;;;;;;;;;;13.48;64.05;98857.00;1048940;28;890;-71
2021/12/08 03:46:17;;;;;;;;;;;;;;;13.48;64.46;98851.66;1048918;28;665;-71
2021/12/08 03:47:15;;;;;;;;;;;;;;;13.48;64.18;98848.97;1045824;28;860;-71
2021/12/08 03:48:05;;;;;;;;;;;;;;;13.47;64.83;98840.13;1045736;28;786;-71
2021/12/08 03:48:57;;;;;;;;;;;;;;;13.47;64.04;98848.16;1045636;28;712;-71
2021/12/08 03:49:48;;;;;;;;;;;;;;;13.48;64.82;98847.16;1045657;28;870;-71
2021/12/08 03:50:38;;;;;;;;;;;;;;;13.47;64.33;98844.63;1048691;28;797;-71
2021/12/08 03:51:28;;;;;;;;;;;;;;;13.48;64.44;98855.16;1052430;28;1993;-70
2021/12/08 03:52:19;;;;;;;;;;;;;;;13.47;64.20;98856.19;1049756;28;641;-68
2021/12/08 03:53:09;;;;;;;;;;;;;;;13.48;64.70;98851.66;1049066;28;807;-71
2021/12/08 03:54:00;;;;;;;;;;;;;;;13.47;64.31;98858.00;1048637;28;638;-71
2021/12/08 03:54:50;;;;;;;;;;;;;;;13.47;64.93;98861.53;1048968;28;658;-68
2021/12/08 03:55:40;;;;;;;;;;;;;;;13.47;63.91;98863.38;1048616;28;1032;-70
2021/12/08 03:56:31;;;;;;;;;;;;;;;13.47;64.29;98858.84;1048886;28;661;-70
2021/12/08 03:57:21;;;;;;;;;;;;;;;13.47;64.56;98858.84;1048715;28;620;-70
2021/12/08 03:58:12;;;;;;;;;;;;;;;13.47;64.97;98860.69;1050525;28;726;-71
2021/12/08 03:59:02;;;;;;;;;;;;;;;13.46;64.17;98862.53;1052782;28;666;-71
2021/12/08 03:59:53;;;;;;;;;;;;;;;13.47;64.68;98872.22;1053791;28;680;-71
2021/12/08 04:00:43;;;;;;;;;;;;;;;13.47;64.96;98871.38;1049640;28;1375;-71
2021/12/08 04:01:33;;;;;;;;;;;;;;;13.46;64.81;98870.56;1048623;28;1935;-71
2021/12/08 04:02:24;;;;;;;;;;;;;;;13.47;64.12;98871.38;1052765;28;645;-71
2021/12/08 04:03:14;;;;;;;;;;;;;;;13.47;63.97;98872.22;1053839;28;832;-73
2021/12/08 04:04:07;;;;;;;;;;;;;;;13.47;64.96;98877.56;1049386;28;798;-73
2021/12/08 04:04:58;;;;;;;;;;;;;;;13.46;64.91;98875.91;1048814;28;628;-72
2021/12/08 04:05:55;;;;;;;;;;;;;;;13.47;64.29;98890.97;1048919;28;657;-72
2021/12/08 04:06:49;;;;;;;;;;;;;;;13.46;64.25;98881.25;1049160;28;1228;-73
2021/12/08 04:07:45;;;;;;;;;;;;;;;13.46;64.43;98881.25;1048885;28;750;-73
2021/12/08 04:08:54;;;;;;;;;;;;;;;13.45;64.44;98882.25;1048808;28;800;-71
2021/12/08 04:09:45;;;;;;;;;;;;;;;13.45;64.74;98889.44;1048683;28;733;-72
2021/12/08 04:10:38;;;;;;;;;;;;;;;13.46;64.67;98886.59;1048724;28;791;-72
2021/12/08 04:11:28;;;;;;;;;;;;;;;13.46;64.97;98889.28;1049769;28;1109;-72
2021/12/08 04:12:19;;;;;;;;;;;;;;;13.45;64.22;98889.44;1049762;28;749;-71
2021/12/08 04:13:09;;;;;;;;;;;;;;;13.46;64.19;98891.13;1049873;28;653;-71
2021/12/08 04:14:00;;;;;;;;;;;;;;;13.45;64.59;98889.44;1050030;28;637;-69
2021/12/08 04:14:50;;;;;;;;;;;;;;;13.44;64.52;98896.63;1049860;28;661;-69
2021/12/08 04:15:41;;;;;;;;;;;;;;;13.44;65.03;98893.97;1049785;28;937;-70
2021/12/08 04:16:31;;;;;;;;;;;;;;;13.45;64.15;98890.28;1049882;28;891;-70
2021/12/08 04:17:21;;;;;;;;;;;;;;;13.45;64.03;98890.28;1049339;28;680;-70
2021/12/08 04:18:12;;;;;;;;;;;;;;;13.45;64.38;98892.97;1049989;28;649;-70
2021/12/08 04:19:02;;;;;;;;;;;;;;;13.44;64.41;98893.13;1049973;28;665;-69
2021/12/08 04:19:53;;;;;;;;;;;;;;;13.44;64.56;98904.66;1045677;28;646;-69
2021/12/08 04:20:43;;;;;;;;;;;;;;;13.44;64.47;98904.66;1046304;28;729;-70
2021/12/08 04:21:33;;;;;;;;;;;;;;;13.43;64.15;98892.31;1048240;28;1894;-72
2021/12/08 04:22:24;;;;;;;;;;;;;;;13.43;64.27;98908.38;1048853;28;677;-71
2021/12/08 04:23:14;;;;;;;;;;;;;;;13.44;64.82;98911.84;1048843;28;630;-72
2021/12/08 04:24:05;;;;;;;;;;;;;;;13.44;64.24;98906.50;1048767;28;704;-70
2021/12/08 04:24:55;;;;;;;;;;;;;;;13.43;64.13;98900.34;1048742;28;727;-69
2021/12/08 04:25:46;;;;;;;;;;;;;;;13.43;64.17;98900.34;1048614;28;762;-71
2021/12/08 04:26:37;;;;;;;;;;;;;;;13.42;64.54;98906.69;1048679;28;818;-70
2021/12/08 04:27:27;;;;;;;;;;;;;;;13.43;64.59;98900.34;1048806;28;852;-71
2021/12/08 04:28:17;;;;;;;;;;;;;;;13.42;64.05;98909.38;1048678;28;657;-70
2021/12/08 04:29:08;;;;;;;;;;;;;;;13.43;64.64;98900.34;1048682;28;931;-70
2021/12/08 04:29:59;;;;;;;;;;;;;;;13.43;64.55;98904.84;1048626;28;677;-70
2021/12/08 04:30:49;;;;;;;;;;;;;;;13.42;65.06;98897.81;1048695;28;1024;-72
2021/12/08 04:31:40;;;;;;;;;;;;;;;13.42;64.88;98901.34;1048657;28;649;-71
2021/12/08 04:32:32;;;;;;;;;;;;;;;13.43;64.38;98908.38;1048810;28;652;-71
2021/12/08 04:33:23;;;;;;;;;;;;;;;13.43;64.54;98903.03;1048580;28;876;-72
2021/12/08 04:34:15;;;;;;;;;;;;;;;13.44;64.13;98901.16;1048777;28;697;-74
2021/12/08 04:35:09;;;;;;;;;;;;;;;13.43;65.06;98904.84;1048736;28;746;-75
2021/12/08 04:35:59;;;;;;;;;;;;;;;13.43;64.20;98902.19;1048805;28;728;-74
2021/12/08 04:36:50;;;;;;;;;;;;;;;13.40;64.41;98903.34;1048613;28;611;-72
2021/12/08 04:37:41;;;;;;;;;;;;;;;13.42;64.20;98905.84;1050332;28;791;-73
2021/12/08 04:38:36;;;;;;;;;;;;;;;13.40;65.01;98903.34;1048633;28;688;-72
2021/12/08 04:39:29;;;;;;;;;;;;;;;13.41;65.12;98910.38;1048198;28;1985;-72
2021/12/08 04:40:33;;;;;;;;;;;;;;;13.41;64.35;98902.34;1048860;28;680;-72
2021/12/08 04:41:29;;;;;;;;;;;;;;;13.42;64.46;98912.03;1048685;28;1885;-73
2021/12/08 04:42:30;;;;;;;;;;;;;;;13.41;64.59;98909.53;1048756;28;697;-72
2021/12/08 04:44:48;;;;;;;;;;;;;;;13.40;65.05;98903.34;1044754;28;1037;-74
2021/12/08 04:45:48;;;;;;;;;;;;;;;13.41;65.01;98913.03;1045681;28;1402;-73
2021/12/08 04:47:46;;;;;;;;;;;;;;;13.40;65.12;98918.56;1049259;28;641;-74
2021/12/08 04:50:27;;;;;;;;;;;;;;;13.40;64.41;98919.41;1045559;28;713;-74
2021/12/08 04:52:10;;;;;;;;;;;;;;;13.40;64.97;98930.09;1040482;28;920;-74
2021/12/08 05:03:16;;;;;;;;;;;;;;;13.38;65.13;98900.00;1046851;28;667;-73
2021/12/08 05:04:05;;;;;;;;;;;;;;;13.38;65.17;98897.31;1045729;28;657;-73
2021/12/08 05:06:49;;;;;;;;;;;;;;;13.39;64.67;98919.56;1046923;28;1292;-73
2021/12/08 05:07:55;;;;;;;;;;;;;;;13.39;64.96;98917.72;1045846;28;673;-72
2021/12/08 05:08:45;;;;;;;;;;;;;;;13.38;64.97;98908.03;1046410;28;845;-72
2021/12/08 05:09:35;;;;;;;;;;;;;;;13.38;64.38;98921.41;1046508;28;716;-72
2021/12/08 05:10:26;;;;;;;;;;;;;;;13.38;64.29;98915.22;1047008;28;755;-73
2021/12/08 05:11:16;;;;;;;;;;;;;;;13.41;65.00;98912.22;1043452;28;1429;-73